sensor_id;sensor_type;location;lat;lon;timestamp;pressure;altitude;pressure_sealevel;temperature;humidity
51313;BME280;37397;53.226;10.400;2024-02-15T00:01:52;101089.53;;;11.56;84.31
51313;BME280;37397;53.226;10.400;2024-02-15T00:04:18;101090.03;;;11.55;84.45
51313;BME280;37397;53.226;10.400;2024-02-15T00:06:46;101085.09;;;11.55;84.32
51313;BME280;37397;53.226;10.400;2024-02-15T00:09:13;101085.72;;;11.59;84.31
51313;BME280;37397;53.226;10.400;2024-02-15T00:11:40;101102.06;;;11.59;84.16
51313;BME280;37397;53.226;10.400;2024-02-15T00:14:07;101094.28;;;11.59;84.35
51313;BME280;37397;53.226;10.400;2024-02-15T00:16:34;101087.75;;;11.59;84.16
51313;BME280;37397;53.226;10.400;2024-02-15T00:19:05;101082.84;;;11.59;84.32
51313;BME280;37397;53.226;10.400;2024-02-15T00:21:33;101080.78;;;11.60;84.29
51313;BME280;37397;53.226;10.400;2024-02-15T00:24:01;101093.00;;;11.60;84.44
51313;BME280;37397;53.226;10.400;2024-02-15T00:26:28;101088.88;;;11.61;84.36
51313;BME280;37397;53.226;10.400;2024-02-15T00:28:55;101086.97;;;11.58;84.42
51313;BME280;37397;53.226;10.400;2024-02-15T00:31:21;101089.19;;;11.63;84.28
51313;BME280;37397;53.226;10.400;2024-02-15T00:33:49;101089.66;;;11.62;84.30
51313;BME280;37397;53.226;10.400;2024-02-15T00:36:16;101086.81;;;11.62;84.40
51313;BME280;37397;53.226;10.400;2024-02-15T00:38:44;101102.22;;;11.64;84.32
51313;BME280;37397;53.226;10.400;2024-02-15T00:41:11;101087.63;;;11.62;84.41
51313;BME280;37397;53.226;10.400;2024-02-15T00:43:38;101088.88;;;11.61;84.39
51313;BME280;37397;53.226;10.400;2024-02-15T00:46:05;101099.34;;;11.64;84.58
51313;BME280;37397;53.226;10.400;2024-02-15T00:48:31;101092.34;;;11.65;84.48
51313;BME280;37397;53.226;10.400;2024-02-15T00:50:58;101088.69;;;11.65;84.42
51313;BME280;37397;53.226;10.400;2024-02-15T00:53:26;101098.06;;;11.65;84.51
51313;BME280;37397;53.226;10.400;2024-02-15T00:55:52;101095.53;;;11.67;84.66
51313;BME280;37397;53.226;10.400;2024-02-15T00:58:19;101095.53;;;11.67;84.59
51313;BME280;37397;53.226;10.400;2024-02-15T01:00:48;101095.19;;;11.65;84.51
51313;BME280;37397;53.226;10.400;2024-02-15T01:03:15;101099.94;;;11.68;84.57
51313;BME280;37397;53.226;10.400;2024-02-15T01:05:42;101101.56;;;11.70;84.47
51313;BME280;37397;53.226;10.400;2024-02-15T01:08:09;101100.78;;;11.69;84.78
51313;BME280;37397;53.226;10.400;2024-02-15T01:10:36;101101.25;;;11.67;84.60
51313;BME280;37397;53.226;10.400;2024-02-15T01:13:03;101098.38;;;11.67;84.70
51313;BME280;37397;53.226;10.400;2024-02-15T01:15:29;101103.94;;;11.71;84.67
51313;BME280;37397;53.226;10.400;2024-02-15T01:17:56;101104.72;;;11.72;84.52
51313;BME280;37397;53.226;10.400;2024-02-15T01:20:23;101100.59;;;11.73;84.76
51313;BME280;37397;53.226;10.400;2024-02-15T01:22:50;101102.34;;;11.70;84.56
51313;BME280;37397;53.226;10.400;2024-02-15T01:25:18;101110.75;;;11.74;84.70
51313;BME280;37397;53.226;10.400;2024-02-15T01:27:44;101102.66;;;11.72;84.58
51313;BME280;37397;53.226;10.400;2024-02-15T01:30:11;101101.38;;;11.73;84.76
51313;BME280;37397;53.226;10.400;2024-02-15T01:32:38;101100.59;;;11.73;85.04
51313;BME280;37397;53.226;10.400;2024-02-15T01:35:09;101100.59;;;11.73;84.97
51313;BME280;37397;53.226;10.400;2024-02-15T01:37:36;101102.66;;;11.72;84.85
51313;BME280;37397;53.226;10.400;2024-02-15T01:40:05;101099.63;;;11.76;84.77
51313;BME280;37397;53.226;10.400;2024-02-15T01:42:33;101101.19;;;11.77;84.79
51313;BME280;37397;53.226;10.400;2024-02-15T01:44:59;101093.91;;;11.76;84.91
51313;BME280;37397;53.226;10.400;2024-02-15T01:47:27;101094.19;;;11.78;84.90
51313;BME280;37397;53.226;10.400;2024-02-15T01:49:54;101085.63;;;11.78;85.03
51313;BME280;37397;53.226;10.400;2024-02-15T01:52:20;101086.88;;;11.77;85.04
51313;BME280;37397;53.226;10.400;2024-02-15T01:54:50;101086.41;;;11.78;84.99
51313;BME280;37397;53.226;10.400;2024-02-15T01:57:18;101088.78;;;11.80;84.97
51313;BME280;37397;53.226;10.400;2024-02-15T01:59:47;101088.78;;;11.80;85.01
51313;BME280;37397;53.226;10.400;2024-02-15T02:02:16;101090.09;;;11.79;85.07
51313;BME280;37397;53.226;10.400;2024-02-15T02:04:45;101077.03;;;11.78;84.91
51313;BME280;37397;53.226;10.400;2024-02-15T02:07:12;101091.97;;;11.82;85.10
51313;BME280;37397;53.226;10.400;2024-02-15T02:09:41;101077.34;;;11.80;85.09
51313;BME280;37397;53.226;10.400;2024-02-15T02:12:08;101081.31;;;11.82;85.24
51313;BME280;37397;53.226;10.400;2024-02-15T02:14:35;101078.81;;;11.75;85.19
51313;BME280;37397;53.226;10.400;2024-02-15T02:17:15;101084.97;;;11.83;84.88
51313;BME280;37397;53.226;10.400;2024-02-15T02:19:42;101093.06;;;11.84;84.98
51313;BME280;37397;53.226;10.400;2024-02-15T02:22:11;101083.69;;;11.84;85.14
51313;BME280;37397;53.226;10.400;2024-02-15T02:25:07;101093.88;;;11.85;85.25
51313;BME280;37397;53.226;10.400;2024-02-15T02:27:35;101089.41;;;11.84;85.36
51313;BME280;37397;53.226;10.400;2024-02-15T02:30:12;101086.06;;;11.85;85.34
51313;BME280;37397;53.226;10.400;2024-02-15T02:32:46;101086.84;;;11.86;85.38
51313;BME280;37397;53.226;10.400;2024-02-15T02:35:13;101094.16;;;11.87;85.43
51313;BME280;37397;53.226;10.400;2024-02-15T02:37:39;101084.81;;;11.86;85.48
51313;BME280;37397;53.226;10.400;2024-02-15T02:40:07;101096.53;;;11.89;85.41
51313;BME280;37397;53.226;10.400;2024-02-15T02:42:55;101081.13;;;11.86;85.43
51313;BME280;37397;53.226;10.400;2024-02-15T02:45:28;101088.75;;;11.89;85.41
51313;BME280;37397;53.226;10.400;2024-02-15T02:47:54;101096.06;;;11.90;85.58
51313;BME280;37397;53.226;10.400;2024-02-15T02:50:21;101084.28;;;11.88;85.48
51313;BME280;37397;53.226;10.400;2024-02-15T02:52:49;101083.50;;;11.88;85.50
51313;BME280;37397;53.226;10.400;2024-02-15T02:55:16;101096.41;;;11.92;85.55
51313;BME280;37397;53.226;10.400;2024-02-15T02:57:43;101089.41;;;11.93;85.71
51313;BME280;37397;53.226;10.400;2024-02-15T03:00:11;101091.47;;;11.93;85.52
51313;BME280;37397;53.226;10.400;2024-02-15T03:02:44;101090.19;;;11.94;85.44
51313;BME280;37397;53.226;10.400;2024-02-15T03:05:12;101083.97;;;11.95;85.61
51313;BME280;37397;53.226;10.400;2024-02-15T03:07:42;101085.72;;;11.93;85.56
51313;BME280;37397;53.226;10.400;2024-02-15T03:10:09;101086.84;;;11.95;85.66
51313;BME280;37397;53.226;10.400;2024-02-15T03:12:40;101076.66;;;11.94;85.52
51313;BME280;37397;53.226;10.400;2024-02-15T03:15:13;101075.41;;;11.95;85.58
51313;BME280;37397;53.226;10.400;2024-02-15T03:17:42;101085.88;;;11.98;85.75
51313;BME280;37397;53.226;10.400;2024-02-15T03:20:10;101085.09;;;11.98;85.52
51313;BME280;37397;53.226;10.400;2024-02-15T03:22:39;101079.03;;;11.96;85.66
51313;BME280;37397;53.226;10.400;2024-02-15T03:25:06;101084.63;;;11.99;85.70
51313;BME280;37397;53.226;10.400;2024-02-15T03:27:36;101074.91;;;11.97;85.47
51313;BME280;37397;53.226;10.400;2024-02-15T03:30:04;101077.28;;;11.98;85.63
51313;BME280;37397;53.226;10.400;2024-02-15T03:32:31;101083.81;;;11.99;85.63
51313;BME280;37397;53.226;10.400;2024-02-15T03:34:58;101088.75;;;11.98;85.46
51313;BME280;37397;53.226;10.400;2024-02-15T03:37:27;101094.75;;;12.00;85.50
51313;BME280;37397;53.226;10.400;2024-02-15T03:39:54;101099.50;;;12.03;85.49
51313;BME280;37397;53.226;10.400;2024-02-15T03:42:21;101090.34;;;11.99;85.53
51313;BME280;37397;53.226;10.400;2024-02-15T03:44:48;101103.97;;;12.04;85.60
51313;BME280;37397;53.226;10.400;2024-02-15T03:47:14;101104.44;;;12.03;85.65
51313;BME280;37397;53.226;10.400;2024-02-15T03:49:41;101106.00;;;12.04;85.49
51313;BME280;37397;53.226;10.400;2024-02-15T03:52:08;101103.97;;;12.04;85.81
51313;BME280;37397;53.226;10.400;2024-02-15T03:54:37;101106.00;;;12.04;85.79
51313;BME280;37397;53.226;10.400;2024-02-15T03:57:04;101103.16;;;12.04;85.64
51313;BME280;37397;53.226;10.400;2024-02-15T03:59:33;101115.69;;;12.07;85.46
51313;BME280;37397;53.226;10.400;2024-02-15T04:02:01;101116.97;;;12.06;85.62
51313;BME280;37397;53.226;10.400;2024-02-15T04:04:30;101115.69;;;12.07;85.70
51313;BME280;37397;53.226;10.400;2024-02-15T04:06:57;101122.22;;;12.07;85.51
51313;BME280;37397;53.226;10.400;2024-02-15T04:09:25;101124.28;;;12.07;85.52
51313;BME280;37397;53.226;10.400;2024-02-15T04:11:51;101124.59;;;12.09;85.30
51313;BME280;37397;53.226;10.400;2024-02-15T04:14:20;101125.88;;;12.08;85.43
51313;BME280;37397;53.226;10.400;2024-02-15T04:16:47;101122.53;;;12.09;85.45
51313;BME280;37397;53.226;10.400;2024-02-15T04:19:14;101118.56;;;12.07;85.67
51313;BME280;37397;53.226;10.400;2024-02-15T04:21:41;101126.19;;;12.10;85.34
51313;BME280;37397;53.226;10.400;2024-02-15T04:24:10;101119.19;;;12.11;85.70
51313;BME280;37397;53.226;10.400;2024-02-15T04:26:38;101129.03;;;12.10;85.34
51313;BME280;37397;53.226;10.400;2024-02-15T04:29:05;101131.91;;;12.10;85.52
51313;BME280;37397;53.226;10.400;2024-02-15T04:31:35;101124.91;;;12.11;85.54
51313;BME280;37397;53.226;10.400;2024-02-15T04:34:05;101129.34;;;12.12;85.53
51313;BME280;37397;53.226;10.400;2024-02-15T04:36:32;101119.97;;;12.11;85.47
51313;BME280;37397;53.226;10.400;2024-02-15T04:39:00;101125.69;;;12.11;85.43
51313;BME280;37397;53.226;10.400;2024-02-15T04:41:29;101111.09;;;12.09;85.43
51313;BME280;37397;53.226;10.400;2024-02-15T04:43:56;101128.06;;;12.13;85.50
51313;BME280;37397;53.226;10.400;2024-02-15T04:46:22;101125.50;;;12.15;85.52
51313;BME280;37397;53.226;10.400;2024-02-15T04:48:49;101127.25;;;12.12;85.40
51313;BME280;37397;53.226;10.400;2024-02-15T04:51:16;101128.06;;;12.13;85.67
51313;BME280;37397;53.226;10.400;2024-02-15T04:53:43;101128.38;;;12.15;85.43
51313;BME280;37397;53.226;10.400;2024-02-15T04:56:12;101134.09;;;12.15;85.44
51313;BME280;37397;53.226;10.400;2024-02-15T04:58:43;101134.88;;;12.15;85.59
51313;BME280;37397;53.226;10.400;2024-02-15T05:01:15;101148.41;;;12.15;85.57
51313;BME280;37397;53.226;10.400;2024-02-15T05:03:43;101140.13;;;12.17;85.53
51313;BME280;37397;53.226;10.400;2024-02-15T05:06:09;101148.69;;;12.17;85.62
51313;BME280;37397;53.226;10.400;2024-02-15T05:08:39;101142.97;;;12.17;85.55
51313;BME280;37397;53.226;10.400;2024-02-15T05:11:13;101143.78;;;12.17;85.32
51313;BME280;37397;53.226;10.400;2024-02-15T05:13:46;101138.56;;;12.16;85.39
51313;BME280;37397;53.226;10.400;2024-02-15T05:16:13;101141.72;;;12.18;85.52
51313;BME280;37397;53.226;10.400;2024-02-15T05:18:41;101136.00;;;12.18;85.55
51313;BME280;37397;53.226;10.400;2024-02-15T05:21:08;101140.44;;;12.19;85.65
51313;BME280;37397;53.226;10.400;2024-02-15T05:23:39;101147.44;;;12.18;85.60
51313;BME280;37397;53.226;10.400;2024-02-15T05:26:06;101144.56;;;12.18;85.74
51313;BME280;37397;53.226;10.400;2024-02-15T05:28:34;101155.03;;;12.21;85.68
51313;BME280;37397;53.226;10.400;2024-02-15T05:31:18;101153.94;;;12.18;85.39
51313;BME280;37397;53.226;10.400;2024-02-15T05:33:47;101151.88;;;12.19;85.70
51313;BME280;37397;53.226;10.400;2024-02-15T05:36:16;101140.75;;;12.21;85.48
51313;BME280;37397;53.226;10.400;2024-02-15T05:38:49;101148.84;;;12.22;85.74
51313;BME280;37397;53.226;10.400;2024-02-15T05:41:16;101140.44;;;12.19;85.77
51313;BME280;37397;53.226;10.400;2024-02-15T05:43:43;101143.13;;;12.22;85.73
51313;BME280;37397;53.226;10.400;2024-02-15T05:46:10;101149.63;;;12.23;85.71
51313;BME280;37397;53.226;10.400;2024-02-15T05:48:37;101141.84;;;12.24;85.56
51313;BME280;37397;53.226;10.400;2024-02-15T05:51:04;101133.28;;;12.24;85.61
51313;BME280;37397;53.226;10.400;2024-02-15T05:53:32;101142.63;;;12.24;85.60
51313;BME280;37397;53.226;10.400;2024-02-15T05:56:03;101138.19;;;12.23;85.49
51313;BME280;37397;53.226;10.400;2024-02-15T05:58:41;101142.63;;;12.24;85.59
51313;BME280;37397;53.226;10.400;2024-02-15T06:01:08;101142.16;;;12.26;85.55
51313;BME280;37397;53.226;10.400;2024-02-15T06:03:38;101129.88;;;12.25;85.60
51313;BME280;37397;53.226;10.400;2024-02-15T06:06:06;101142.16;;;12.26;85.61
51313;BME280;37397;53.226;10.400;2024-02-15T06:08:34;101139.78;;;12.24;85.57
51313;BME280;37397;53.226;10.400;2024-02-15T06:11:01;101144.53;;;12.27;85.45
51313;BME280;37397;53.226;10.400;2024-02-15T06:13:28;101132.44;;;12.23;85.54
51313;BME280;37397;53.226;10.400;2024-02-15T06:15:54;101143.72;;;12.27;85.40
51313;BME280;37397;53.226;10.400;2024-02-15T06:18:22;101143.41;;;12.25;85.50
51313;BME280;37397;53.226;10.400;2024-02-15T06:20:51;101154.38;;;12.26;85.56
51313;BME280;37397;53.226;10.400;2024-02-15T06:23:21;101153.13;;;12.27;85.42
51313;BME280;37397;53.226;10.400;2024-02-15T06:25:47;101163.25;;;12.28;85.69
51313;BME280;37397;53.226;10.400;2024-02-15T06:28:14;101155.97;;;12.27;85.61
51313;BME280;37397;53.226;10.400;2024-02-15T06:30:59;101151.50;;;12.26;85.38
51313;BME280;37397;53.226;10.400;2024-02-15T06:33:44;101156.47;;;12.26;85.53
51313;BME280;37397;53.226;10.400;2024-02-15T06:36:29;101162.47;;;12.28;85.49
51313;BME280;37397;53.226;10.400;2024-02-15T06:39:14;101155.97;;;12.27;85.29
51313;BME280;37397;53.226;10.400;2024-02-15T06:42:00;101152.78;;;12.25;85.75
51313;BME280;37397;53.226;10.400;2024-02-15T06:44:28;101160.41;;;12.28;85.41
51313;BME280;37397;53.226;10.400;2024-02-15T06:46:54;101157.53;;;12.28;85.54
51313;BME280;37397;53.226;10.400;2024-02-15T06:49:23;101155.97;;;12.27;85.53
51313;BME280;37397;53.226;10.400;2024-02-15T06:51:51;101157.06;;;12.30;85.60
51313;BME280;37397;53.226;10.400;2024-02-15T06:54:18;101166.44;;;12.30;85.43
51313;BME280;37397;53.226;10.400;2024-02-15T06:56:45;101164.84;;;12.29;85.46
51313;BME280;37397;53.226;10.400;2024-02-15T06:59:13;101161.50;;;12.31;85.38
51313;BME280;37397;53.226;10.400;2024-02-15T07:01:44;101161.50;;;12.31;85.39
51313;BME280;37397;53.226;10.400;2024-02-15T07:04:11;101156.28;;;12.29;85.38
51313;BME280;37397;53.226;10.400;2024-02-15T07:06:38;101163.09;;;12.32;85.50
51313;BME280;37397;53.226;10.400;2024-02-15T07:09:05;101159.13;;;12.29;85.21
51313;BME280;37397;53.226;10.400;2024-02-15T07:11:33;101163.88;;;12.32;85.29
51313;BME280;37397;53.226;10.400;2024-02-15T07:14:01;101163.88;;;12.32;85.43
51313;BME280;37397;53.226;10.400;2024-02-15T07:16:28;101169.63;;;12.32;85.58
51313;BME280;37397;53.226;10.400;2024-02-15T07:18:55;101157.38;;;12.32;85.45
51313;BME280;37397;53.226;10.400;2024-02-15T07:21:23;101165.47;;;12.33;85.52
51313;BME280;37397;53.226;10.400;2024-02-15T07:23:53;101147.97;;;12.31;85.33
51313;BME280;37397;53.226;10.400;2024-02-15T07:26:23;101149.88;;;12.34;85.49
51313;BME280;37397;53.226;10.400;2024-02-15T07:28:54;101151.66;;;12.32;85.46
51313;BME280;37397;53.226;10.400;2024-02-15T07:31:21;101151.47;;;12.35;85.42
51313;BME280;37397;53.226;10.400;2024-02-15T07:33:48;101146.72;;;12.32;85.43
51313;BME280;37397;53.226;10.400;2024-02-15T07:36:22;101157.19;;;12.35;85.36
51313;BME280;37397;53.226;10.400;2024-02-15T07:38:50;101163.69;;;12.36;85.36
51313;BME280;37397;53.226;10.400;2024-02-15T07:41:18;101164.50;;;12.36;85.48
51313;BME280;37397;53.226;10.400;2024-02-15T07:43:46;101173.88;;;12.37;85.59
51313;BME280;37397;53.226;10.400;2024-02-15T07:46:14;101173.88;;;12.37;85.63
51313;BME280;37397;53.226;10.400;2024-02-15T07:48:43;101171.81;;;12.37;85.47
51313;BME280;37397;53.226;10.400;2024-02-15T07:51:15;101178.31;;;12.38;85.75
51313;BME280;37397;53.226;10.400;2024-02-15T07:53:42;101180.69;;;12.39;85.66
51313;BME280;37397;53.226;10.400;2024-02-15T07:56:10;101171.81;;;12.37;85.74
51313;BME280;37397;53.226;10.400;2024-02-15T07:58:41;101175.78;;;12.40;85.62
51313;BME280;37397;53.226;10.400;2024-02-15T08:01:08;101172.91;;;12.40;85.71
51313;BME280;37397;53.226;10.400;2024-02-15T08:03:37;101170.06;;;12.40;85.88
51313;BME280;37397;53.226;10.400;2024-02-15T08:06:09;101168.75;;;12.41;85.87
51313;BME280;37397;53.226;10.400;2024-02-15T08:08:36;101163.50;;;12.39;85.67
51313;BME280;37397;53.226;10.400;2024-02-15T08:11:03;101160.16;;;12.41;85.89
51313;BME280;37397;53.226;10.400;2024-02-15T08:13:30;101149.53;;;12.42;85.72
51313;BME280;37397;53.226;10.400;2024-02-15T08:15:56;101148.72;;;12.41;85.87
51313;BME280;37397;53.226;10.400;2024-02-15T08:18:23;101171.94;;;12.43;85.66
51313;BME280;37397;53.226;10.400;2024-02-15T08:20:50;101168.59;;;12.45;85.68
51313;BME280;37397;53.226;10.400;2024-02-15T08:23:16;101163.34;;;12.43;85.78
51313;BME280;37397;53.226;10.400;2024-02-15T08:25:43;101172.72;;;12.44;85.80
51313;BME280;37397;53.226;10.400;2024-02-15T08:28:10;101169.88;;;12.44;85.86
51313;BME280;37397;53.226;10.400;2024-02-15T08:30:38;101171.28;;;12.48;85.92
51313;BME280;37397;53.226;10.400;2024-02-15T08:33:04;101161.09;;;12.47;85.96
51313;BME280;37397;53.226;10.400;2024-02-15T08:35:31;101167.91;;;12.50;86.05
51313;BME280;37397;53.226;10.400;2024-02-15T08:37:59;101169.50;;;12.51;85.93
51313;BME280;37397;53.226;10.400;2024-02-15T08:40:25;101162.50;;;12.52;85.85
51313;BME280;37397;53.226;10.400;2024-02-15T08:42:52;101153.91;;;12.52;85.90
51313;BME280;37397;53.226;10.400;2024-02-15T08:45:19;101162.78;;;12.54;86.04
51313;BME280;37397;53.226;10.400;2024-02-15T08:47:46;101165.66;;;12.54;85.99
51313;BME280;37397;53.226;10.400;2024-02-15T08:50:16;101162.78;;;12.54;85.95
51313;BME280;37397;53.226;10.400;2024-02-15T08:52:44;101167.53;;;12.57;86.24
51313;BME280;37397;53.226;10.400;2024-02-15T08:55:11;101163.41;;;12.58;86.08
51313;BME280;37397;53.226;10.400;2024-02-15T08:57:41;101162.63;;;12.57;86.33
51313;BME280;37397;53.226;10.400;2024-02-15T09:00:08;101157.97;;;12.60;86.28
51313;BME280;37397;53.226;10.400;2024-02-15T09:02:44;101154.03;;;12.57;86.29
51313;BME280;37397;53.226;10.400;2024-02-15T09:05:11;101158.28;;;12.62;86.13
51313;BME280;37397;53.226;10.400;2024-02-15T09:07:42;101162.75;;;12.63;86.09
51313;BME280;37397;53.226;10.400;2024-02-15T09:10:10;101168.75;;;12.65;86.23
51313;BME280;37397;53.226;10.400;2024-02-15T09:12:37;101162.25;;;12.65;86.32
51313;BME280;37397;53.226;10.400;2024-02-15T09:15:09;101166.38;;;12.64;86.27
51313;BME280;37397;53.226;10.400;2024-02-15T09:17:37;101163.03;;;12.65;86.34
51313;BME280;37397;53.226;10.400;2024-02-15T09:20:09;101164.94;;;12.68;86.32
51313;BME280;37397;53.226;10.400;2024-02-15T09:22:41;101170.97;;;12.70;86.25
51313;BME280;37397;53.226;10.400;2024-02-15T09:25:08;101173.34;;;12.72;86.21
51313;BME280;37397;53.226;10.400;2024-02-15T09:27:36;101158.72;;;12.70;86.22
51313;BME280;37397;53.226;10.400;2024-02-15T09:30:03;101162.69;;;12.72;86.22
51313;BME280;37397;53.226;10.400;2024-02-15T09:32:34;101164.56;;;12.75;86.31
51313;BME280;37397;53.226;10.400;2024-02-15T09:35:01;101162.97;;;12.74;86.28
51313;BME280;37397;53.226;10.400;2024-02-15T09:37:36;101163.28;;;12.76;86.42
51313;BME280;37397;53.226;10.400;2024-02-15T09:40:08;101158.84;;;12.75;86.30
51313;BME280;37397;53.226;10.400;2024-02-15T09:42:37;101173.75;;;12.80;86.32
51313;BME280;37397;53.226;10.400;2024-02-15T09:45:08;101161.50;;;12.79;86.31
51313;BME280;37397;53.226;10.400;2024-02-15T09:47:39;101162.28;;;12.80;86.29
51313;BME280;37397;53.226;10.400;2024-02-15T09:50:08;101171.22;;;12.82;86.07
51313;BME280;37397;53.226;10.400;2024-02-15T09:52:50;101172.00;;;12.82;86.10
51313;BME280;37397;53.226;10.400;2024-02-15T09:55:18;101167.38;;;12.85;86.36
51313;BME280;37397;53.226;10.400;2024-02-15T09:57:46;101171.03;;;12.85;86.23
51313;BME280;37397;53.226;10.400;2024-02-15T10:00:14;101178.31;;;12.86;86.19
51313;BME280;37397;53.226;10.400;2024-02-15T10:02:50;101177.53;;;12.86;86.25
51313;BME280;37397;53.226;10.400;2024-02-15T10:05:19;101171.59;;;12.89;86.25
51313;BME280;37397;53.226;10.400;2024-02-15T10:07:47;101177.81;;;12.88;86.36
51313;BME280;37397;53.226;10.400;2024-02-15T10:10:24;101178.16;;;12.90;86.27
51313;BME280;37397;53.226;10.400;2024-02-15T10:12:53;101178.44;;;12.92;86.36
51313;BME280;37397;53.226;10.400;2024-02-15T10:15:36;101163.50;;;12.88;86.23
51313;BME280;37397;53.226;10.400;2024-02-15T10:18:06;101175.56;;;12.92;86.32
51313;BME280;37397;53.226;10.400;2024-02-15T10:20:35;101174.59;;;12.95;86.40
51313;BME280;37397;53.226;10.400;2024-02-15T10:25:36;101187.66;;;12.96;86.09
51313;BME280;37397;53.226;10.400;2024-02-15T10:30:34;101190.03;;;12.98;86.28
51313;BME280;37397;53.226;10.400;2024-02-15T10:33:06;101179.34;;;12.98;86.22
51313;BME280;37397;53.226;10.400;2024-02-15T10:35:34;101180.91;;;12.99;86.26
51313;BME280;37397;53.226;10.400;2024-02-15T10:38:06;101176.78;;;13.00;86.04
51313;BME280;37397;53.226;10.400;2024-02-15T10:40:40;101182.50;;;13.00;85.94
51313;BME280;37397;53.226;10.400;2024-02-15T10:43:10;101174.22;;;13.02;86.10
51313;BME280;37397;53.226;10.400;2024-02-15T10:45:40;101175.03;;;13.03;86.26
51313;BME280;37397;53.226;10.400;2024-02-15T10:48:09;101175.81;;;13.03;86.29
51313;BME280;37397;53.226;10.400;2024-02-15T10:50:40;101188.84;;;13.04;86.01
51313;BME280;37397;53.226;10.400;2024-02-15T10:53:21;101183.13;;;13.04;86.03
51313;BME280;37397;53.226;10.400;2024-02-15T10:58:26;101164.63;;;13.05;85.91
51313;BME280;37397;53.226;10.400;2024-02-15T11:00:56;101158.41;;;13.07;86.23
51313;BME280;37397;53.226;10.400;2024-02-15T11:03:26;101155.06;;;13.08;86.26
51313;BME280;37397;53.226;10.400;2024-02-15T11:05:59;101155.56;;;13.07;86.28
51313;BME280;37397;53.226;10.400;2024-02-15T11:08:27;101148.53;;;13.08;86.36
51313;BME280;37397;53.226;10.400;2024-02-15T11:10:54;101145.47;;;13.11;86.32
51313;BME280;37397;53.226;10.400;2024-02-15T11:13:25;101147.06;;;13.12;86.17
51313;BME280;37397;53.226;10.400;2024-02-15T11:15:51;101146.25;;;13.12;86.06
51313;BME280;37397;53.226;10.400;2024-02-15T11:18:45;101144.22;;;13.12;85.97
51313;BME280;37397;53.226;10.400;2024-02-15T11:21:15;101151.00;;;13.15;86.17
51313;BME280;37397;53.226;10.400;2024-02-15T11:23:44;101137.50;;;13.16;86.12
51313;BME280;37397;53.226;10.400;2024-02-15T11:26:42;101139.56;;;13.15;85.98
51313;BME280;37397;53.226;10.400;2024-02-15T11:29:09;101127.59;;;13.17;86.16
51313;BME280;37397;53.226;10.400;2024-02-15T11:31:54;101127.59;;;13.17;86.26
51313;BME280;37397;53.226;10.400;2024-02-15T11:34:43;101126.31;;;13.18;86.08
51313;BME280;37397;53.226;10.400;2024-02-15T11:40:20;101120.88;;;13.20;86.38
51313;BME280;37397;53.226;10.400;2024-02-15T11:42:59;101121.69;;;13.20;86.43
51313;BME280;37397;53.226;10.400;2024-02-15T11:45:27;101118.63;;;13.24;86.56
51313;BME280;37397;53.226;10.400;2024-02-15T11:48:01;101108.16;;;13.21;86.50
51313;BME280;37397;53.226;10.400;2024-02-15T11:50:34;101108.22;;;13.26;86.45
51313;BME280;37397;53.226;10.400;2024-02-15T11:53:07;101108.22;;;13.26;86.46
51313;BME280;37397;53.226;10.400;2024-02-15T11:55:39;101101.22;;;13.27;86.27
51313;BME280;37397;53.226;10.400;2024-02-15T11:58:10;101087.19;;;13.29;86.15
51313;BME280;37397;53.226;10.400;2024-02-15T12:00:38;101093.25;;;13.31;86.40
51313;BME280;37397;53.226;10.400;2024-02-15T12:03:24;101098.97;;;13.31;86.24
51313;BME280;37397;53.226;10.400;2024-02-15T12:06:27;101098.16;;;13.31;86.18
51313;BME280;37397;53.226;10.400;2024-02-15T12:09:17;101095.63;;;13.33;86.21
51313;BME280;37397;53.226;10.400;2024-02-15T12:12:03;101088.28;;;13.32;86.20
51313;BME280;37397;53.226;10.400;2024-02-15T12:14:48;101084.97;;;13.34;86.36
51313;BME280;37397;53.226;10.400;2024-02-15T12:17:34;101085.25;;;13.36;86.40
51313;BME280;37397;53.226;10.400;2024-02-15T12:20:20;101082.88;;;13.34;86.29
51313;BME280;37397;53.226;10.400;2024-02-15T12:22:52;101089.22;;;13.38;86.28
51313;BME280;37397;53.226;10.400;2024-02-15T12:25:20;101083.47;;;13.38;86.30
51313;BME280;37397;53.226;10.400;2024-02-15T12:27:55;101079.31;;;13.39;86.10
51313;BME280;37397;53.226;10.400;2024-02-15T12:30:22;101081.38;;;13.39;86.24
51313;BME280;37397;53.226;10.400;2024-02-15T12:32:52;101073.88;;;13.41;86.14
51313;BME280;37397;53.226;10.400;2024-02-15T12:35:35;101085.63;;;13.43;86.15
51313;BME280;37397;53.226;10.400;2024-02-15T12:38:03;101074.19;;;13.43;85.90
51313;BME280;37397;53.226;10.400;2024-02-15T12:40:36;101075.44;;;13.42;85.92
51313;BME280;37397;53.226;10.400;2024-02-15T12:43:07;101075.75;;;13.44;85.85
51313;BME280;37397;53.226;10.400;2024-02-15T12:45:39;101072.59;;;13.42;85.96
51313;BME280;37397;53.226;10.400;2024-02-15T12:48:08;101068.72;;;13.45;85.98
51313;BME280;37397;53.226;10.400;2024-02-15T12:50:35;101061.72;;;13.46;86.07
51313;BME280;37397;53.226;10.400;2024-02-15T12:53:02;101063.00;;;13.45;85.73
51313;BME280;37397;53.226;10.400;2024-02-15T12:55:30;101066.16;;;13.47;85.76
51313;BME280;37397;53.226;10.400;2024-02-15T12:58:12;101064.88;;;13.48;85.87
51313;BME280;37397;53.226;10.400;2024-02-15T13:00:39;101058.84;;;13.46;86.09
51313;BME280;37397;53.226;10.400;2024-02-15T13:03:08;101065.16;;;13.50;86.09
51313;BME280;37397;53.226;10.400;2024-02-15T13:05:37;101066.47;;;13.49;86.02